createdAt,value
2017-07-06T00:00:35.592Z,0
2017-07-06T00:01:37.459Z,0
2017-07-06T00:02:39.333Z,0
2017-07-06T00:03:53.479Z,0
2017-07-06T00:04:55.379Z,0
2017-07-06T00:05:57.272Z,0
2017-07-06T00:06:59.162Z,0
2017-07-06T00:08:00.970Z,0
2017-07-06T00:09:02.798Z,0
2017-07-06T00:10:04.671Z,0
2017-07-06T00:11:06.566Z,0
2017-07-06T00:12:08.442Z,0
2017-07-06T00:13:22.610Z,0
2017-07-06T00:14:24.481Z,0
2017-07-06T00:15:26.377Z,0
2017-07-06T00:16:28.250Z,0
2017-07-06T00:17:30.079Z,0
2017-07-06T00:18:31.886Z,0
2017-07-06T00:19:33.759Z,0
2017-07-06T00:20:35.631Z,0
2017-07-06T00:21:37.527Z,0
2017-07-06T00:22:51.672Z,0
2017-07-06T00:23:53.575Z,0
2017-07-06T00:24:55.465Z,0
2017-07-06T00:25:57.333Z,0
2017-07-06T00:26:59.144Z,0
2017-07-06T00:28:00.976Z,0
2017-07-06T00:29:02.872Z,0
2017-07-06T00:30:04.770Z,0
2017-07-06T00:31:06.664Z,0
2017-07-06T00:32:20.808Z,0
2017-07-06T00:33:22.686Z,0
2017-07-06T00:34:24.584Z,0
2017-07-06T00:35:26.480Z,0
2017-07-06T00:36:28.316Z,0
2017-07-06T00:37:30.143Z,0
2017-07-06T00:38:32.016Z,0
2017-07-06T00:39:33.913Z,0
2017-07-06T00:40:35.805Z,0
2017-07-06T00:41:49.952Z,0
2017-07-06T00:42:51.846Z,0
2017-07-06T00:43:53.744Z,0
2017-07-06T00:44:55.637Z,0
2017-07-06T00:45:57.472Z,0
2017-07-06T00:46:59.311Z,0
2017-07-06T00:48:01.195Z,0
2017-07-06T00:49:03.069Z,0
2017-07-06T00:50:04.963Z,0
2017-07-06T00:51:19.111Z,0
2017-07-06T00:52:21.010Z,0
2017-07-06T00:53:22.907Z,0
2017-07-06T00:54:24.785Z,0
2017-07-06T00:55:26.613Z,0
2017-07-06T00:56:28.418Z,0
2017-07-06T00:57:30.313Z,0
2017-07-06T00:58:32.183Z,0
2017-07-06T00:59:34.078Z,0
2017-07-06T01:00:48.244Z,0
2017-07-06T01:01:50.148Z,0
2017-07-06T01:02:52.038Z,0
2017-07-06T01:03:53.932Z,0
2017-07-06T01:04:55.732Z,0
2017-07-06T01:05:57.539Z,0
2017-07-06T01:06:59.412Z,0
2017-07-06T01:08:01.308Z,0
2017-07-06T01:09:03.177Z,0
2017-07-06T01:10:17.347Z,0
2017-07-06T01:11:19.241Z,0
2017-07-06T01:12:21.132Z,0
2017-07-06T01:13:23.007Z,0
2017-07-06T01:14:24.840Z,0
2017-07-06T01:15:26.648Z,0
2017-07-06T01:16:28.521Z,0
2017-07-06T01:17:30.395Z,0
2017-07-06T01:18:32.293Z,0
2017-07-06T01:19:46.435Z,0
2017-07-06T01:20:48.330Z,0
2017-07-06T01:21:50.205Z,0
2017-07-06T01:22:52.102Z,0
2017-07-06T01:23:53.937Z,0
2017-07-06T01:24:55.735Z,0
2017-07-06T01:25:57.611Z,0
2017-07-06T01:26:59.486Z,0
2017-07-06T01:28:01.376Z,0
2017-07-06T01:29:15.521Z,0
2017-07-06T01:30:17.390Z,0
2017-07-06T01:31:19.263Z,0
2017-07-06T01:32:21.153Z,0
2017-07-06T01:33:22.966Z,0
2017-07-06T01:34:24.798Z,0
2017-07-06T01:35:26.690Z,0
2017-07-06T01:36:28.558Z,0
2017-07-06T01:37:30.436Z,0
2017-07-06T01:38:44.609Z,0
2017-07-06T01:39:46.503Z,0
2017-07-06T01:40:48.374Z,0
2017-07-06T01:41:50.247Z,0
2017-07-06T01:42:52.059Z,0
2017-07-06T01:43:53.887Z,0
2017-07-06T01:44:55.757Z,0
2017-07-06T01:45:57.626Z,0
2017-07-06T01:46:59.526Z,0
2017-07-06T01:48:13.699Z,0
2017-07-06T01:49:15.596Z,0
2017-07-06T01:50:17.483Z,0
2017-07-06T01:51:19.402Z,0
2017-07-06T01:52:21.238Z,0
2017-07-06T01:53:23.041Z,0
2017-07-06T01:54:24.918Z,0
2017-07-06T01:55:26.819Z,0
2017-07-06T01:56:28.704Z,0
2017-07-06T01:57:42.849Z,0
2017-07-06T01:58:44.747Z,0
2017-07-06T01:59:46.635Z,0
2017-07-06T02:00:48.512Z,0
2017-07-06T02:01:50.345Z,0
2017-07-06T02:02:52.150Z,0
2017-07-06T02:03:54.024Z,0
2017-07-06T02:04:55.922Z,0
2017-07-06T02:05:57.793Z,0
2017-07-06T02:07:11.960Z,0
2017-07-06T02:08:13.836Z,0
2017-07-06T02:09:15.736Z,0
2017-07-06T02:10:17.629Z,0
2017-07-06T02:11:19.467Z,0
2017-07-06T02:12:21.270Z,0
2017-07-06T02:13:23.167Z,0
2017-07-06T02:14:25.059Z,0
2017-07-06T02:15:26.926Z,0
2017-07-06T02:16:41.074Z,0
2017-07-06T02:17:42.970Z,0
2017-07-06T02:18:44.869Z,0
2017-07-06T02:19:46.764Z,0
2017-07-06T02:20:48.595Z,0
2017-07-06T02:21:50.404Z,0
2017-07-06T02:22:52.307Z,0
2017-07-06T02:23:54.201Z,0
2017-07-06T02:24:56.103Z,0
2017-07-06T02:26:10.248Z,0
2017-07-06T02:27:12.117Z,0
2017-07-06T02:28:13.986Z,0
2017-07-06T02:29:15.882Z,0
2017-07-06T02:30:17.689Z,0
2017-07-06T02:31:19.514Z,0
2017-07-06T02:32:21.391Z,0
2017-07-06T02:33:23.259Z,0
2017-07-06T02:34:25.131Z,0
2017-07-06T02:35:39.309Z,0
2017-07-06T02:36:41.206Z,0
2017-07-06T02:37:43.149Z,0
2017-07-06T02:38:45.042Z,0
2017-07-06T02:39:46.907Z,0
2017-07-06T02:40:48.720Z,5
2017-07-06T02:41:50.601Z,5
2017-07-06T02:42:52.438Z,5
2017-07-06T02:43:54.267Z,5
2017-07-06T02:45:08.439Z,5
2017-07-06T02:46:10.336Z,5
2017-07-06T02:47:12.236Z,5
2017-07-06T02:48:14.131Z,10
2017-07-06T02:49:15.949Z,10
2017-07-06T02:50:17.782Z,10
2017-07-06T02:51:19.657Z,10
2017-07-06T02:52:21.554Z,10
2017-07-06T02:53:23.422Z,10
2017-07-06T02:54:37.576Z,10
2017-07-06T02:55:39.474Z,15
2017-07-06T02:56:41.369Z,15
2017-07-06T02:57:43.267Z,15
2017-07-06T02:58:45.105Z,20
2017-07-06T02:59:46.915Z,20
2017-07-06T03:00:48.813Z,20
2017-07-06T03:01:50.710Z,25
2017-07-06T03:02:52.611Z,25
2017-07-06T03:04:06.785Z,30
2017-07-06T03:05:08.678Z,30
2017-07-06T03:06:10.555Z,35
2017-07-06T03:07:12.453Z,35
2017-07-06T03:08:14.291Z,35
2017-07-06T03:09:16.124Z,35
2017-07-06T03:10:17.999Z,40
2017-07-06T03:11:19.887Z,35
2017-07-06T03:12:21.785Z,40
2017-07-06T03:13:35.927Z,40
2017-07-06T03:14:37.799Z,45
2017-07-06T03:15:39.669Z,45
2017-07-06T03:16:41.546Z,50
2017-07-06T03:17:43.356Z,55
2017-07-06T03:18:45.193Z,60
2017-07-06T03:19:47.090Z,65
2017-07-06T03:20:48.966Z,75
2017-07-06T03:21:50.859Z,90
2017-07-06T03:23:05.033Z,105
2017-07-06T03:24:06.930Z,100
2017-07-06T03:25:08.809Z,95
2017-07-06T03:26:10.707Z,100
2017-07-06T03:27:12.548Z,115
2017-07-06T03:28:14.385Z,125
2017-07-06T03:29:16.263Z,130
2017-07-06T03:30:18.157Z,130
2017-07-06T03:31:20.060Z,135
2017-07-06T03:32:34.238Z,140
2017-07-06T03:33:36.104Z,140
2017-07-06T03:34:37.976Z,145
2017-07-06T03:35:39.858Z,145
2017-07-06T03:36:41.696Z,150
2017-07-06T03:37:43.508Z,160
2017-07-06T03:38:45.387Z,165
2017-07-06T03:39:47.284Z,170
2017-07-06T03:40:49.179Z,175
2017-07-06T03:42:03.383Z,175
2017-07-06T03:43:05.285Z,180
2017-07-06T03:44:07.163Z,185
2017-07-06T03:45:09.037Z,190
2017-07-06T03:46:10.851Z,195
2017-07-06T03:47:12.666Z,205
2017-07-06T03:48:14.566Z,190
2017-07-06T03:49:16.445Z,205
2017-07-06T03:50:18.344Z,215
2017-07-06T03:51:32.494Z,220
2017-07-06T03:52:34.392Z,225
2017-07-06T03:53:36.293Z,225
2017-07-06T03:54:38.196Z,225
2017-07-06T03:55:40.037Z,235
2017-07-06T03:56:41.853Z,240
2017-07-06T03:57:43.757Z,245
2017-07-06T03:58:45.653Z,250
2017-07-06T03:59:47.524Z,235
2017-07-06T04:01:01.676Z,255
2017-07-06T04:02:03.620Z,245
2017-07-06T04:03:05.468Z,265
2017-07-06T04:04:07.343Z,295
2017-07-06T04:05:09.187Z,300
2017-07-06T04:06:10.999Z,310
2017-07-06T04:07:12.902Z,310
2017-07-06T04:08:14.804Z,325
2017-07-06T04:09:16.695Z,330
2017-07-06T04:10:30.851Z,340
2017-07-06T04:11:32.726Z,345
2017-07-06T04:12:34.627Z,355
2017-07-06T04:13:36.509Z,365
2017-07-06T04:14:38.351Z,360
2017-07-06T04:15:40.165Z,375
2017-07-06T04:16:42.066Z,390
2017-07-06T04:17:43.966Z,400
2017-07-06T04:18:45.869Z,380
2017-07-06T04:20:00.048Z,415
2017-07-06T04:21:01.952Z,440
2017-07-06T04:22:03.860Z,455
2017-07-06T04:23:05.762Z,455
2017-07-06T04:24:07.601Z,465
2017-07-06T04:25:09.415Z,475
2017-07-06T04:26:11.293Z,485
2017-07-06T04:27:13.196Z,500
2017-07-06T04:28:15.094Z,495
2017-07-06T04:29:29.331Z,485
2017-07-06T04:30:31.232Z,490
2017-07-06T04:31:33.133Z,495
2017-07-06T04:32:35.013Z,505
2017-07-06T04:33:36.855Z,525
2017-07-06T04:34:38.675Z,535
2017-07-06T04:35:40.581Z,540
2017-07-06T04:36:42.480Z,535
2017-07-06T04:37:44.387Z,535
2017-07-06T04:38:58.587Z,530
2017-07-06T04:40:00.501Z,540
2017-07-06T04:41:02.388Z,550
2017-07-06T04:42:04.287Z,560
2017-07-06T04:43:06.115Z,555
2017-07-06T04:44:07.956Z,560
2017-07-06T04:45:09.841Z,575
2017-07-06T04:46:11.751Z,605
2017-07-06T04:47:13.654Z,620
2017-07-06T04:48:27.837Z,625
2017-07-06T04:49:29.743Z,640
2017-07-06T04:50:31.649Z,645
2017-07-06T04:51:33.556Z,635
2017-07-06T04:52:35.405Z,650
2017-07-06T04:53:37.269Z,660
2017-07-06T04:54:39.121Z,670
2017-07-06T04:55:41.023Z,665
2017-07-06T04:56:42.898Z,690
2017-07-06T04:57:57.054Z,705
2017-07-06T04:58:58.960Z,725
2017-07-06T05:00:00.860Z,715
2017-07-06T05:01:02.744Z,690
2017-07-06T05:02:04.562Z,660
2017-07-06T05:03:06.386Z,665
2017-07-06T05:04:08.283Z,680
2017-07-06T05:05:10.189Z,715
2017-07-06T05:06:12.095Z,750
2017-07-06T05:07:26.244Z,760
2017-07-06T05:08:28.124Z,765
2017-07-06T05:09:30.003Z,785
2017-07-06T05:10:31.886Z,805
2017-07-06T05:11:33.700Z,800
2017-07-06T05:12:35.519Z,725
2017-07-06T05:13:37.407Z,560
2017-07-06T05:14:39.312Z,430
2017-07-06T05:15:41.217Z,420
2017-07-06T05:16:55.375Z,415
2017-07-06T05:17:57.285Z,415
2017-07-06T05:18:59.197Z,415
2017-07-06T05:20:01.101Z,415
2017-07-06T05:21:02.918Z,410
2017-07-06T05:22:04.741Z,415
2017-07-06T05:23:06.645Z,415
2017-07-06T05:24:08.531Z,410
2017-07-06T05:25:10.440Z,410
2017-07-06T05:26:24.620Z,415
2017-07-06T05:27:26.523Z,410
2017-07-06T05:28:28.408Z,415
2017-07-06T05:29:30.311Z,415
2017-07-06T05:30:32.155Z,415
2017-07-06T05:31:33.999Z,415
2017-07-06T05:32:35.898Z,420
2017-07-06T05:33:37.797Z,425
2017-07-06T05:34:39.672Z,420
2017-07-06T05:35:53.835Z,425
2017-07-06T05:36:55.742Z,425
2017-07-06T05:37:57.653Z,425
2017-07-06T05:38:59.557Z,425
2017-07-06T05:40:01.406Z,425
2017-07-06T05:41:03.243Z,420
2017-07-06T05:42:05.130Z,420
2017-07-06T05:43:07.025Z,425
2017-07-06T05:44:08.902Z,425
2017-07-06T05:45:23.061Z,420
2017-07-06T05:46:24.959Z,420
2017-07-06T05:47:26.844Z,425
2017-07-06T05:48:28.719Z,420
2017-07-06T05:49:30.562Z,415
2017-07-06T05:50:32.396Z,415
2017-07-06T05:51:34.274Z,425
2017-07-06T05:52:36.154Z,420
2017-07-06T05:53:38.051Z,425
2017-07-06T05:54:52.205Z,440
2017-07-06T05:55:54.083Z,450
2017-07-06T05:56:55.983Z,465
2017-07-06T05:57:57.898Z,495
2017-07-06T05:58:59.706Z,515
2017-07-06T06:00:01.524Z,500
2017-07-06T06:01:03.404Z,480
2017-07-06T06:02:05.286Z,465
2017-07-06T06:03:07.193Z,445
2017-07-06T06:04:21.372Z,440
2017-07-06T06:05:23.279Z,430
2017-07-06T06:06:25.179Z,430
2017-07-06T06:07:27.060Z,430
2017-07-06T06:08:28.905Z,425
2017-07-06T06:09:30.716Z,425
2017-07-06T06:10:32.595Z,420
2017-07-06T06:11:34.494Z,420
2017-07-06T06:12:36.370Z,420
2017-07-06T06:13:50.526Z,425
2017-07-06T06:14:52.423Z,430
2017-07-06T06:15:54.304Z,430
2017-07-06T06:16:56.180Z,440
2017-07-06T06:17:58.003Z,435
2017-07-06T06:18:59.994Z,440
2017-07-06T06:20:01.873Z,445
2017-07-06T06:21:03.753Z,445
2017-07-06T06:22:05.660Z,445
2017-07-06T06:23:19.874Z,445
2017-07-06T06:24:21.791Z,455
2017-07-06T06:25:23.666Z,455
2017-07-06T06:26:25.547Z,455
2017-07-06T06:27:27.393Z,455
2017-07-06T06:28:29.230Z,460
2017-07-06T06:29:31.111Z,465
2017-07-06T06:30:33.086Z,465
2017-07-06T06:31:34.976Z,470
2017-07-06T06:32:49.129Z,470
2017-07-06T06:33:51.031Z,475
2017-07-06T06:34:52.936Z,485
2017-07-06T06:35:54.841Z,485
2017-07-06T06:36:56.684Z,495
2017-07-06T06:37:58.498Z,505
2017-07-06T06:39:00.378Z,515
2017-07-06T06:40:02.257Z,525
2017-07-06T06:41:04.133Z,545
2017-07-06T06:42:18.287Z,565
2017-07-06T06:43:20.163Z,580
2017-07-06T06:44:22.046Z,605
2017-07-06T06:45:23.949Z,630
2017-07-06T06:46:25.791Z,675
2017-07-06T06:47:27.631Z,715
2017-07-06T06:48:29.513Z,720
2017-07-06T06:49:31.406Z,705
2017-07-06T06:50:33.289Z,695
2017-07-06T06:51:47.473Z,685
2017-07-06T06:52:49.379Z,685
2017-07-06T06:53:51.283Z,695
2017-07-06T06:54:53.185Z,715
2017-07-06T06:55:55.012Z,730
2017-07-06T06:56:56.852Z,740
2017-07-06T06:57:58.759Z,715
2017-07-06T06:59:00.634Z,710
2017-07-06T07:00:02.511Z,700
2017-07-06T07:01:16.669Z,675
2017-07-06T07:02:18.577Z,665
2017-07-06T07:03:20.472Z,665
2017-07-06T07:04:22.353Z,660
2017-07-06T07:05:24.173Z,665
2017-07-06T07:06:26.018Z,670
2017-07-06T07:07:27.896Z,665
2017-07-06T07:08:29.804Z,665
2017-07-06T07:09:31.707Z,665
2017-07-06T07:10:45.870Z,655
2017-07-06T07:11:47.749Z,660
2017-07-06T07:12:49.631Z,665
2017-07-06T07:13:51.541Z,670
2017-07-06T07:14:53.385Z,670
2017-07-06T07:15:55.228Z,650
2017-07-06T07:16:57.108Z,655
2017-07-06T07:17:59.008Z,665
2017-07-06T07:19:00.915Z,665
2017-07-06T07:20:15.100Z,655
2017-07-06T07:21:17.004Z,645
2017-07-06T07:22:18.908Z,630
2017-07-06T07:23:20.814Z,615
2017-07-06T07:24:22.665Z,600
2017-07-06T07:25:24.510Z,585
2017-07-06T07:26:26.413Z,585
2017-07-06T07:27:28.311Z,580
2017-07-06T07:28:30.200Z,585
2017-07-06T07:29:44.429Z,600
2017-07-06T07:30:46.309Z,605
2017-07-06T07:31:48.194Z,585
2017-07-06T07:32:50.106Z,560
2017-07-06T07:33:51.947Z,540
2017-07-06T07:34:53.773Z,535
2017-07-06T07:35:55.677Z,545
2017-07-06T07:36:57.580Z,530
2017-07-06T07:37:59.456Z,525
2017-07-06T07:39:13.641Z,495
2017-07-06T07:40:15.539Z,495
2017-07-06T07:41:17.423Z,485
2017-07-06T07:42:19.328Z,475
2017-07-06T07:43:21.151Z,475
2017-07-06T07:44:22.994Z,455
2017-07-06T07:45:24.903Z,455
2017-07-06T07:46:26.777Z,460
2017-07-06T07:47:28.681Z,480
2017-07-06T07:48:42.866Z,525
2017-07-06T07:49:44.763Z,560
2017-07-06T07:50:46.646Z,610
2017-07-06T07:51:48.555Z,640
2017-07-06T07:52:50.395Z,640
2017-07-06T07:53:52.214Z,645
2017-07-06T07:54:54.131Z,650
2017-07-06T07:55:56.034Z,640
2017-07-06T07:56:57.952Z,610
2017-07-06T07:58:12.132Z,610
2017-07-06T07:59:14.050Z,590
2017-07-06T08:00:15.978Z,585
2017-07-06T08:01:17.900Z,565
2017-07-06T08:02:19.778Z,560
2017-07-06T08:03:21.653Z,540
2017-07-06T08:04:23.574Z,550
2017-07-06T08:05:25.506Z,530
2017-07-06T08:06:27.441Z,500
2017-07-06T08:07:41.675Z,485
2017-07-06T08:08:43.578Z,465
2017-07-06T08:09:45.500Z,470
2017-07-06T08:10:47.426Z,460
2017-07-06T08:11:49.312Z,465
2017-07-06T08:12:51.201Z,475
2017-07-06T08:13:53.112Z,485
2017-07-06T08:14:55.006Z,500
2017-07-06T08:15:56.930Z,505
2017-07-06T08:17:11.152Z,510
2017-07-06T08:18:13.077Z,520
2017-07-06T08:19:14.981Z,515
2017-07-06T08:20:16.873Z,515
2017-07-06T08:21:18.723Z,515
2017-07-06T08:22:20.562Z,505
2017-07-06T08:23:22.469Z,505
2017-07-06T08:24:24.373Z,505
2017-07-06T08:25:26.297Z,510
2017-07-06T08:26:40.505Z,510
2017-07-06T08:27:42.409Z,510
2017-07-06T08:28:44.314Z,505
2017-07-06T08:29:46.225Z,505
2017-07-06T08:30:48.040Z,510
2017-07-06T08:31:49.881Z,510
2017-07-06T08:32:51.784Z,515
2017-07-06T08:33:53.662Z,515
2017-07-06T08:34:55.553Z,510
2017-07-06T08:36:09.742Z,530
2017-07-06T08:37:11.623Z,555
2017-07-06T08:38:13.524Z,580
2017-07-06T08:39:15.409Z,605
2017-07-06T08:40:17.253Z,635
2017-07-06T08:41:19.094Z,650
2017-07-06T08:42:21.024Z,640
2017-07-06T08:43:22.934Z,610
2017-07-06T08:44:24.813Z,590
2017-07-06T08:45:38.997Z,590
2017-07-06T08:46:40.898Z,585
2017-07-06T08:47:42.800Z,585
2017-07-06T08:48:44.680Z,595
2017-07-06T08:49:46.506Z,600
2017-07-06T08:50:48.346Z,610
2017-07-06T08:51:50.226Z,620
2017-07-06T08:52:52.127Z,650
2017-07-06T08:53:54.009Z,675
2017-07-06T08:55:08.170Z,690
2017-07-06T08:56:10.043Z,705
2017-07-06T08:57:11.920Z,690
2017-07-06T08:58:13.808Z,665
2017-07-06T08:59:15.655Z,665
2017-07-06T09:00:17.496Z,665
2017-07-06T09:01:19.400Z,655
2017-07-06T09:02:21.302Z,655
2017-07-06T09:03:23.205Z,655
2017-07-06T09:04:37.368Z,665
2017-07-06T09:05:39.278Z,645
2017-07-06T09:06:41.180Z,610
2017-07-06T09:07:43.083Z,610
2017-07-06T09:08:44.924Z,620
2017-07-06T09:09:46.746Z,625
2017-07-06T09:10:48.678Z,625
2017-07-06T09:11:50.562Z,630
2017-07-06T09:12:52.444Z,620
2017-07-06T09:14:06.605Z,640
2017-07-06T09:15:08.541Z,675
2017-07-06T09:16:10.466Z,710
2017-07-06T09:17:12.404Z,740
2017-07-06T09:18:14.268Z,760
2017-07-06T09:19:16.137Z,775
2017-07-06T09:20:18.045Z,800
2017-07-06T09:21:19.941Z,795
2017-07-06T09:22:21.848Z,790
2017-07-06T09:23:36.070Z,810
2017-07-06T09:24:37.969Z,805
2017-07-06T09:25:39.898Z,790
2017-07-06T09:26:41.789Z,710
2017-07-06T09:27:43.631Z,650
2017-07-06T09:28:45.495Z,670
2017-07-06T09:29:47.426Z,660
2017-07-06T09:30:49.358Z,740
2017-07-06T09:31:51.267Z,790
2017-07-06T09:33:05.454Z,795
2017-07-06T09:34:07.334Z,810
2017-07-06T09:35:09.239Z,835
2017-07-06T09:36:11.155Z,845
2017-07-06T09:37:13.005Z,815
2017-07-06T09:38:14.845Z,775
2017-07-06T09:39:16.728Z,760
2017-07-06T09:40:18.636Z,760
2017-07-06T09:41:20.544Z,775
2017-07-06T09:42:34.730Z,780
2017-07-06T09:43:36.619Z,780
2017-07-06T09:44:38.541Z,775
2017-07-06T09:45:40.444Z,775
2017-07-06T09:46:42.269Z,770
2017-07-06T09:47:44.138Z,750
2017-07-06T09:48:46.098Z,750
2017-07-06T09:49:48.055Z,750
2017-07-06T09:50:50.014Z,800
2017-07-06T09:52:04.226Z,850
2017-07-06T09:53:06.151Z,870
2017-07-06T09:54:08.030Z,845
2017-07-06T09:55:09.921Z,825
2017-07-06T09:56:11.777Z,810
2017-07-06T09:57:13.630Z,780
2017-07-06T09:58:15.555Z,760
2017-07-06T09:59:17.465Z,745
2017-07-06T10:00:19.391Z,710
2017-07-06T10:01:33.579Z,645
2017-07-06T10:02:35.484Z,645
2017-07-06T10:03:37.440Z,685
2017-07-06T10:04:39.378Z,710
2017-07-06T10:05:41.246Z,725
2017-07-06T10:06:43.121Z,695
2017-07-06T10:07:45.064Z,665
2017-07-06T10:08:46.970Z,620
2017-07-06T10:09:48.895Z,585
2017-07-06T10:11:03.113Z,560
2017-07-06T10:12:05.015Z,580
2017-07-06T10:13:06.909Z,625
2017-07-06T10:14:08.823Z,660
2017-07-06T10:15:10.886Z,690
2017-07-06T10:16:12.716Z,730
2017-07-06T10:17:14.638Z,765
2017-07-06T10:18:16.584Z,775
2017-07-06T10:19:18.524Z,765
2017-07-06T10:20:32.726Z,785
2017-07-06T10:21:34.672Z,790
2017-07-06T10:22:36.596Z,725
2017-07-06T10:23:38.501Z,605
2017-07-06T10:24:40.329Z,660
2017-07-06T10:25:42.148Z,630
2017-07-06T10:26:44.052Z,615
2017-07-06T10:27:45.927Z,585
2017-07-06T10:28:47.810Z,570
2017-07-06T10:30:01.969Z,530
2017-07-06T10:31:03.854Z,510
2017-07-06T10:32:05.765Z,495
2017-07-06T10:33:07.668Z,495
2017-07-06T10:34:09.498Z,510
2017-07-06T10:35:11.340Z,545
2017-07-06T10:36:13.245Z,590
2017-07-06T10:37:15.125Z,610
2017-07-06T10:38:17.027Z,605
2017-07-06T10:39:31.190Z,590
2017-07-06T10:40:33.098Z,600
2017-07-06T10:41:35.027Z,595
2017-07-06T10:42:36.940Z,595
2017-07-06T10:43:38.788Z,585
2017-07-06T10:44:40.609Z,565
2017-07-06T10:45:42.516Z,550
2017-07-06T10:46:44.402Z,530
2017-07-06T10:47:46.305Z,520
2017-07-06T10:49:00.488Z,515
2017-07-06T10:50:02.366Z,515
2017-07-06T10:51:04.246Z,530
2017-07-06T10:52:06.135Z,520
2017-07-06T10:53:08.000Z,530
2017-07-06T10:54:09.824Z,550
2017-07-06T10:55:11.753Z,540
2017-07-06T10:56:13.660Z,515
2017-07-06T10:57:15.581Z,485
2017-07-06T10:58:29.744Z,450
2017-07-06T10:59:31.634Z,430
2017-07-06T11:00:33.545Z,425
2017-07-06T11:01:35.434Z,415
2017-07-06T11:02:37.279Z,410
2017-07-06T11:03:39.095Z,410
2017-07-06T11:04:40.975Z,415
2017-07-06T11:05:42.886Z,420
2017-07-06T11:06:44.757Z,435
2017-07-06T11:07:58.922Z,430
2017-07-06T11:09:00.829Z,425
2017-07-06T11:10:02.734Z,425
2017-07-06T11:11:04.634Z,405
2017-07-06T11:12:06.461Z,405
2017-07-06T11:13:08.298Z,410
2017-07-06T11:14:10.182Z,420
2017-07-06T11:15:12.082Z,435
2017-07-06T11:16:13.987Z,450
2017-07-06T11:17:28.147Z,460
2017-07-06T11:18:30.020Z,445
2017-07-06T11:19:31.900Z,445
2017-07-06T11:20:33.865Z,445
2017-07-06T11:21:35.716Z,445
2017-07-06T11:22:37.558Z,470
2017-07-06T11:23:39.465Z,515
2017-07-06T11:24:41.344Z,550
2017-07-06T11:25:43.336Z,605
2017-07-06T11:26:57.605Z,625
2017-07-06T11:27:59.576Z,615
2017-07-06T11:29:01.446Z,605
2017-07-06T11:30:03.478Z,585
2017-07-06T11:31:05.398Z,590
2017-07-06T11:32:07.240Z,615
2017-07-06T11:33:09.674Z,620
2017-07-06T11:34:11.871Z,590
2017-07-06T11:35:13.793Z,540
2017-07-06T11:36:27.977Z,530
2017-07-06T11:37:29.883Z,545
2017-07-06T11:38:31.771Z,595
2017-07-06T11:39:33.679Z,610
2017-07-06T11:40:35.600Z,620
2017-07-06T11:41:37.483Z,640
2017-07-06T11:42:39.369Z,665
2017-07-06T11:43:41.250Z,660
2017-07-06T11:44:43.156Z,630
2017-07-06T11:45:57.345Z,640
2017-07-06T11:46:59.252Z,670
2017-07-06T11:48:01.138Z,710
2017-07-06T11:49:03.042Z,715
2017-07-06T11:50:04.893Z,715
2017-07-06T11:51:06.739Z,730
2017-07-06T11:52:08.646Z,715
2017-07-06T11:53:10.569Z,665
2017-07-06T11:54:12.445Z,610
2017-07-06T11:55:26.605Z,570
2017-07-06T11:56:28.491Z,540
2017-07-06T11:57:30.393Z,520
2017-07-06T11:58:32.278Z,510
2017-07-06T11:59:34.103Z,490
2017-07-06T12:00:35.914Z,490
2017-07-06T12:01:37.799Z,495
2017-07-06T12:02:39.705Z,500
2017-07-06T12:03:41.583Z,490
2017-07-06T12:04:55.746Z,480
2017-07-06T12:05:57.653Z,485
2017-07-06T12:06:59.558Z,495
2017-07-06T12:08:01.439Z,530
2017-07-06T12:09:03.291Z,575
2017-07-06T12:10:05.110Z,615
2017-07-06T12:11:07.021Z,690
2017-07-06T12:12:08.932Z,680
2017-07-06T12:13:10.832Z,660
2017-07-06T12:14:24.994Z,595
2017-07-06T12:15:26.902Z,550
2017-07-06T12:16:28.837Z,530
2017-07-06T12:17:30.743Z,545
2017-07-06T12:18:32.561Z,530
2017-07-06T12:19:34.407Z,525
2017-07-06T12:20:36.389Z,515
2017-07-06T12:21:38.316Z,500
2017-07-06T12:22:40.248Z,490
2017-07-06T12:23:54.426Z,510
2017-07-06T12:24:56.325Z,510
2017-07-06T12:25:58.206Z,525
2017-07-06T12:27:00.143Z,555
2017-07-06T12:28:01.954Z,590
2017-07-06T12:29:03.796Z,580
2017-07-06T12:30:05.705Z,620
2017-07-06T12:31:07.606Z,650
2017-07-06T12:32:09.489Z,670
2017-07-06T12:33:23.747Z,640
2017-07-06T12:34:25.653Z,645
2017-07-06T12:35:27.534Z,635
2017-07-06T12:36:29.416Z,640
2017-07-06T12:37:31.245Z,640
2017-07-06T12:38:33.082Z,640
2017-07-06T12:39:34.969Z,630
2017-07-06T12:40:36.891Z,610
2017-07-06T12:41:38.772Z,570
2017-07-06T12:42:52.981Z,525
2017-07-06T12:43:54.893Z,520
2017-07-06T12:44:56.802Z,530
2017-07-06T12:45:58.710Z,530
2017-07-06T12:47:00.559Z,520
2017-07-06T12:48:02.376Z,515
2017-07-06T12:49:04.290Z,540
2017-07-06T12:50:06.188Z,585
2017-07-06T12:51:08.095Z,600
2017-07-06T12:52:22.254Z,575
2017-07-06T12:53:24.137Z,580
2017-07-06T12:54:26.065Z,565
2017-07-06T12:55:27.972Z,540
2017-07-06T12:56:29.823Z,550
2017-07-06T12:57:31.647Z,555
2017-07-06T12:58:33.489Z,550
2017-07-06T12:59:35.313Z,525
2017-07-06T13:00:37.157Z,525
2017-07-06T13:01:51.397Z,500
2017-07-06T13:02:53.303Z,500
2017-07-06T13:03:55.289Z,505
2017-07-06T13:04:57.386Z,525
2017-07-06T13:05:59.465Z,540
2017-07-06T13:07:01.334Z,560
2017-07-06T13:08:03.241Z,585
2017-07-06T13:09:05.172Z,550
2017-07-06T13:10:07.076Z,485
2017-07-06T13:11:21.265Z,430
2017-07-06T13:12:23.278Z,415
2017-07-06T13:13:25.143Z,410
2017-07-06T13:14:27.028Z,410
2017-07-06T13:15:28.872Z,405
2017-07-06T13:16:30.686Z,410
2017-07-06T13:17:32.656Z,415
2017-07-06T13:18:34.638Z,420
2017-07-06T13:19:36.520Z,425
2017-07-06T13:20:50.887Z,425
2017-07-06T13:21:52.851Z,430
2017-07-06T13:22:54.733Z,430
2017-07-06T13:23:56.786Z,425
2017-07-06T13:24:58.696Z,425
2017-07-06T13:26:00.533Z,425
2017-07-06T13:27:02.420Z,430
2017-07-06T13:28:04.318Z,435
2017-07-06T13:29:06.231Z,440
2017-07-06T13:30:20.393Z,420
2017-07-06T13:31:22.272Z,410
2017-07-06T13:32:24.150Z,435
2017-07-06T13:33:26.027Z,435
2017-07-06T13:34:27.851Z,470
2017-07-06T13:35:29.696Z,500
2017-07-06T13:36:31.755Z,510
2017-07-06T13:37:33.858Z,480
2017-07-06T13:38:35.828Z,450
2017-07-06T13:39:50.017Z,445
2017-07-06T13:40:51.927Z,440
2017-07-06T13:41:53.839Z,445
2017-07-06T13:42:55.713Z,440
2017-07-06T13:43:57.538Z,440
2017-07-06T13:44:59.352Z,435
2017-07-06T13:46:01.251Z,420
2017-07-06T13:47:03.153Z,410
2017-07-06T13:48:05.057Z,405
2017-07-06T13:49:19.264Z,410
2017-07-06T13:50:21.138Z,405
2017-07-06T13:51:23.019Z,445
2017-07-06T13:52:24.927Z,465
2017-07-06T13:53:26.779Z,480
2017-07-06T13:54:28.623Z,485
2017-07-06T13:55:30.530Z,480
2017-07-06T13:56:32.437Z,480
2017-07-06T13:57:34.314Z,495
2017-07-06T13:58:48.503Z,515
2017-07-06T13:59:50.411Z,530
2017-07-06T14:00:52.314Z,525
2017-07-06T14:01:54.222Z,510
2017-07-06T14:02:56.067Z,490
2017-07-06T14:03:57.913Z,480
2017-07-06T14:04:59.752Z,490
2017-07-06T14:06:01.568Z,485
2017-07-06T14:07:03.529Z,480
2017-07-06T14:08:17.976Z,480
2017-07-06T14:09:19.935Z,485
2017-07-06T14:10:21.926Z,480
2017-07-06T14:11:23.837Z,480
2017-07-06T14:12:25.647Z,490
2017-07-06T14:13:27.473Z,505
2017-07-06T14:14:29.381Z,515
2017-07-06T14:15:31.379Z,515
2017-07-06T14:16:33.299Z,465
2017-07-06T14:17:47.465Z,475
2017-07-06T14:18:49.368Z,485
2017-07-06T14:19:51.246Z,505
2017-07-06T14:20:53.134Z,480
2017-07-06T14:21:54.954Z,450
2017-07-06T14:22:56.793Z,425
2017-07-06T14:23:58.702Z,415
2017-07-06T14:25:00.576Z,430
2017-07-06T14:26:02.484Z,470
2017-07-06T14:27:16.650Z,465
2017-07-06T14:28:18.526Z,410
2017-07-06T14:29:20.410Z,435
2017-07-06T14:30:22.314Z,470
2017-07-06T14:31:24.159Z,470
2017-07-06T14:32:25.982Z,500
2017-07-06T14:33:27.888Z,505
2017-07-06T14:34:29.775Z,505
2017-07-06T14:35:31.688Z,520
2017-07-06T14:36:45.849Z,545
2017-07-06T14:37:47.729Z,515
2017-07-06T14:38:49.632Z,495
2017-07-06T14:39:51.515Z,510
2017-07-06T14:40:53.359Z,515
2017-07-06T14:41:55.183Z,555
2017-07-06T14:42:57.725Z,545
2017-07-06T14:43:59.619Z,510